createdAt,value
2017-07-24T21:19:16.447Z,14.60
2017-07-24T21:21:43.954Z,14.50
2017-07-24T21:24:11.587Z,14.60
2017-07-24T21:26:39.126Z,14.60
2017-07-24T21:29:06.675Z,14.50
2017-07-24T21:31:34.945Z,14.60
2017-07-24T21:34:02.731Z,14.60
2017-07-24T21:36:30.274Z,14.60
2017-07-24T21:38:58.580Z,14.80
2017-07-24T21:41:26.078Z,14.70
2017-07-24T21:43:53.583Z,14.90
2017-07-24T21:46:21.249Z,14.70
2017-07-24T21:48:48.787Z,14.60
2017-07-24T21:51:17.361Z,14.50
2017-07-24T21:53:44.867Z,14.50
2017-07-24T21:56:12.381Z,14.40
2017-07-24T21:58:40.660Z,14.20
2017-07-24T22:01:08.163Z,14.20
2017-07-24T22:03:35.709Z,14.20
2017-07-24T22:06:03.212Z,14.10
2017-07-24T22:08:30.772Z,14.10
2017-07-24T22:10:58.282Z,13.90
2017-07-24T22:13:26.241Z,14.00
2017-07-24T22:15:53.784Z,14.00
2017-07-24T22:18:21.320Z,14.00
2017-07-24T22:20:48.834Z,13.80
2017-07-24T22:23:16.336Z,13.90
2017-07-24T22:25:43.942Z,13.80
2017-07-24T22:28:15.998Z,13.80
2017-07-24T22:30:46.527Z,13.70
2017-07-24T22:33:14.293Z,13.60
2017-07-24T22:35:41.829Z,13.60
2017-07-24T22:38:10.148Z,13.70
2017-07-24T22:40:37.644Z,13.70
2017-07-24T22:43:05.144Z,13.80
2017-07-24T22:45:36.555Z,13.90
2017-07-24T22:48:04.056Z,14.00
2017-07-24T22:50:31.555Z,14.00
2017-07-24T22:52:59.167Z,13.90
2017-07-24T22:55:26.668Z,13.90
2017-07-24T22:57:54.169Z,13.70
2017-07-24T23:00:22.478Z,13.80
2017-07-24T23:02:50.014Z,13.80
2017-07-24T23:05:17.694Z,13.80
2017-07-24T23:07:45.191Z,13.90
2017-07-24T23:10:12.920Z,13.80
2017-07-24T23:12:40.414Z,13.60
2017-07-24T23:15:08.115Z,13.50
2017-07-24T23:17:39.281Z,13.60
2017-07-24T23:20:07.031Z,13.60
2017-07-24T23:22:34.556Z,13.50
2017-07-24T23:25:02.832Z,13.60
2017-07-24T23:27:30.393Z,13.50
2017-07-24T23:29:58.707Z,13.40
2017-07-24T23:32:26.467Z,13.40
2017-07-24T23:34:57.695Z,13.50
2017-07-24T23:37:25.232Z,13.50
2017-07-24T23:39:52.723Z,13.40
2017-07-24T23:42:20.247Z,13.60
2017-07-24T23:44:51.756Z,13.70
2017-07-24T23:47:19.255Z,13.70
2017-07-24T23:49:46.848Z,13.70
2017-07-24T23:52:14.351Z,13.60
2017-07-24T23:54:41.855Z,13.50
2017-07-24T23:57:09.396Z,13.60
2017-07-24T23:59:36.894Z,13.60
